createdAt,value
2022-08-17T00:00:01.616Z,3.65
2022-08-17T00:02:29.203Z,3.60
2022-08-17T00:04:57.945Z,3.83
2022-08-17T00:07:24.722Z,3.80
2022-08-17T00:09:51.461Z,3.40
2022-08-17T00:12:41.470Z,4.07
2022-08-17T00:15:10.327Z,3.90
2022-08-17T00:17:37.940Z,3.95
2022-08-17T00:20:05.454Z,3.70
2022-08-17T00:22:36.298Z,4.80
2022-08-17T00:25:19.531Z,3.60
2022-08-17T00:27:46.734Z,4.05
2022-08-17T00:30:14.504Z,4.38
2022-08-17T00:33:12.213Z,3.88
2022-08-17T00:35:34.873Z,3.60
2022-08-17T00:38:01.834Z,3.70
2022-08-17T00:40:39.757Z,4.00
2022-08-17T00:43:21.981Z,3.65
2022-08-17T00:45:49.469Z,3.45
2022-08-17T00:48:29.864Z,3.85
2022-08-17T00:51:18.077Z,3.90
2022-08-17T00:53:51.408Z,3.60
2022-08-17T00:56:25.823Z,4.10
2022-08-17T00:58:54.840Z,3.67
2022-08-17T01:01:22.218Z,3.85
2022-08-17T01:03:51.971Z,3.90
2022-08-17T01:06:19.547Z,4.35
2022-08-17T01:08:46.801Z,3.95
2022-08-17T01:11:13.575Z,4.13
2022-08-17T01:13:43.073Z,3.80
2022-08-17T01:16:17.116Z,4.10
2022-08-17T01:18:47.574Z,3.80
2022-08-17T01:21:47.272Z,3.50
2022-08-17T01:24:15.275Z,3.38
2022-08-17T01:26:43.397Z,4.55
2022-08-17T01:29:10.890Z,3.97
2022-08-17T01:31:41.836Z,4.30
2022-08-17T01:34:11.100Z,4.43
2022-08-17T01:36:39.906Z,4.32
2022-08-17T01:39:12.089Z,3.88
2022-08-17T01:41:41.105Z,3.97
2022-08-17T01:44:09.221Z,4.10
2022-08-17T01:46:37.231Z,3.88
2022-08-17T01:49:09.012Z,4.20
2022-08-17T01:51:36.090Z,4.60
2022-08-17T01:54:06.763Z,4.07
2022-08-17T01:56:36.815Z,3.87
2022-08-17T01:59:04.617Z,3.97
2022-08-17T02:01:34.601Z,3.88
2022-08-17T02:04:02.211Z,4.35
2022-08-17T02:06:31.313Z,4.07
2022-08-17T02:09:16.566Z,4.93
2022-08-17T02:11:44.524Z,4.18
2022-08-17T02:14:13.495Z,4.10
2022-08-17T02:16:41.486Z,3.85
2022-08-17T02:19:12.518Z,4.20
2022-08-17T02:21:42.514Z,4.40
2022-08-17T02:24:13.343Z,4.10
2022-08-17T02:26:40.402Z,3.47
2022-08-17T02:29:07.329Z,4.63
2022-08-17T02:31:35.535Z,3.85
2022-08-17T02:34:04.663Z,4.28
2022-08-17T02:36:34.051Z,4.68
2022-08-17T02:39:11.519Z,4.90
2022-08-17T02:41:39.635Z,3.83
2022-08-17T02:44:07.477Z,4.03
2022-08-17T02:46:34.618Z,4.03
2022-08-17T02:49:01.672Z,3.55
2022-08-17T02:51:28.605Z,4.03
2022-08-17T02:54:39.309Z,3.90
2022-08-17T02:56:42.397Z,4.00
2022-08-17T02:59:09.234Z,3.65
2022-08-17T03:01:36.123Z,4.20
2022-08-17T03:04:03.053Z,4.40
2022-08-17T03:06:30.456Z,4.32
2022-08-17T03:08:57.389Z,4.18
2022-08-17T03:11:24.154Z,4.55
2022-08-17T03:13:51.108Z,3.90
2022-08-17T03:16:18.037Z,3.78
2022-08-17T03:18:44.865Z,3.75
2022-08-17T03:21:11.677Z,4.30
2022-08-17T03:23:41.151Z,3.97
2022-08-17T03:26:12.292Z,4.18
2022-08-17T03:28:42.787Z,4.03
2022-08-17T03:31:09.696Z,4.20
2022-08-17T03:33:36.468Z,3.85
2022-08-17T03:36:03.492Z,4.55
2022-08-17T03:38:39.122Z,3.88
2022-08-17T03:41:06.957Z,3.92
2022-08-17T03:43:34.670Z,4.95
2022-08-17T03:46:27.883Z,4.00
2022-08-17T03:49:24.078Z,3.92
2022-08-17T03:52:09.366Z,4.40
2022-08-17T03:54:54.962Z,3.53
2022-08-17T03:57:21.799Z,4.20
2022-08-17T03:59:48.735Z,4.00
2022-08-17T04:02:25.236Z,4.07
2022-08-17T04:04:52.726Z,4.10
2022-08-17T04:07:25.398Z,4.20
2022-08-17T04:09:52.223Z,4.10
2022-08-17T04:12:21.530Z,4.22
2022-08-17T04:14:52.113Z,4.13
2022-08-17T04:17:26.865Z,4.20
2022-08-17T04:19:54.715Z,4.32
2022-08-17T04:22:31.130Z,4.07
2022-08-17T04:25:15.652Z,4.57
2022-08-17T04:30:10.241Z,4.13
2022-08-17T04:33:08.688Z,4.10
2022-08-17T04:35:47.850Z,4.13
2022-08-17T04:38:18.067Z,4.43
2022-08-17T04:41:03.728Z,5.25
2022-08-17T04:43:32.923Z,4.43
2022-08-17T04:46:02.492Z,4.97
2022-08-17T04:48:36.365Z,4.28
2022-08-17T04:51:07.196Z,4.70
2022-08-17T04:53:34.081Z,4.78
2022-08-17T04:56:01.025Z,4.78
2022-08-17T04:58:28.024Z,5.10
2022-08-17T05:00:54.960Z,4.72
2022-08-17T05:03:21.759Z,4.53
2022-08-17T05:05:49.798Z,4.22
2022-08-17T05:08:18.852Z,4.55
2022-08-17T05:10:46.848Z,4.72
2022-08-17T05:13:16.638Z,4.25
2022-08-17T05:15:45.413Z,4.22
2022-08-17T05:18:16.050Z,4.10
2022-08-17T05:20:42.965Z,4.30
2022-08-17T05:23:12.913Z,4.15
2022-08-17T05:25:47.734Z,3.67
2022-08-17T05:28:16.398Z,4.35
2022-08-17T05:30:44.722Z,4.60
2022-08-17T05:33:25.163Z,4.60
2022-08-17T05:35:55.535Z,4.88
2022-08-17T05:38:24.317Z,3.63
2022-08-17T05:40:51.771Z,3.63
2022-08-17T05:43:20.329Z,3.75
2022-08-17T05:46:24.785Z,3.85
2022-08-17T05:49:11.099Z,3.90
2022-08-17T05:51:55.788Z,3.42
2022-08-17T05:54:43.698Z,3.78
2022-08-17T05:57:20.870Z,4.28
2022-08-17T06:00:07.792Z,3.67
2022-08-17T06:03:09.927Z,4.00
2022-08-17T06:05:54.312Z,4.00
2022-08-17T06:08:56.743Z,4.13
2022-08-17T06:11:58.816Z,4.40
2022-08-17T06:14:36.254Z,4.50
2022-08-17T06:17:13.323Z,4.10
2022-08-17T06:19:45.781Z,4.38
2022-08-17T06:22:16.502Z,4.25
2022-08-17T06:24:58.073Z,4.78
2022-08-17T06:28:05.239Z,4.22
2022-08-17T06:30:59.824Z,5.05
2022-08-17T06:33:34.257Z,5.18
2022-08-17T06:36:15.817Z,4.82
2022-08-17T06:38:51.485Z,4.25
2022-08-17T06:41:38.122Z,5.63
2022-08-17T06:44:42.128Z,5.03
2022-08-17T06:47:28.331Z,5.13
2022-08-17T06:50:15.368Z,5.45
2022-08-17T06:53:05.332Z,5.00
2022-08-17T06:55:44.147Z,5.05
2022-08-17T06:58:16.250Z,4.80
2022-08-17T07:00:47.035Z,4.88
2022-08-17T07:03:22.620Z,4.80
2022-08-17T07:05:57.812Z,5.00
2022-08-17T07:08:38.070Z,5.18
2022-08-17T07:11:13.158Z,5.10
2022-08-17T07:14:07.064Z,4.90
2022-08-17T07:16:46.207Z,5.57
2022-08-17T07:19:16.821Z,4.90
2022-08-17T07:21:56.115Z,4.53
2022-08-17T07:24:43.263Z,4.88
2022-08-17T07:27:19.740Z,4.68
2022-08-17T07:29:51.488Z,4.15
2022-08-17T07:32:23.226Z,4.35
2022-08-17T07:35:08.455Z,4.07
2022-08-17T07:37:46.192Z,4.78
2022-08-17T07:40:33.451Z,4.22
2022-08-17T07:43:21.904Z,4.45
2022-08-17T07:46:20.948Z,4.10
2022-08-17T07:48:51.126Z,4.60
2022-08-17T07:51:31.177Z,3.83
2022-08-17T07:54:14.029Z,3.67
2022-08-17T07:56:46.981Z,3.80
2022-08-17T07:59:23.332Z,3.95
2022-08-17T08:01:57.999Z,4.15
2022-08-17T08:05:02.478Z,4.35
2022-08-17T08:07:38.294Z,4.22
2022-08-17T08:10:15.178Z,3.95
2022-08-17T08:12:42.022Z,4.40
2022-08-17T08:15:13.205Z,4.35
2022-08-17T08:20:34.982Z,4.70
2022-08-17T08:23:17.715Z,5.10
2022-08-17T08:26:03.294Z,4.38
2022-08-17T08:28:35.915Z,4.30
2022-08-17T08:31:12.782Z,4.38
2022-08-17T08:33:39.820Z,4.85
2022-08-17T08:37:14.063Z,4.70
2022-08-17T08:39:19.212Z,4.25
2022-08-17T08:42:00.598Z,4.35
2022-08-17T08:45:01.151Z,4.85
2022-08-17T08:47:58.215Z,5.22
2022-08-17T08:50:47.570Z,5.15
2022-08-17T08:53:37.129Z,5.15
2022-08-17T08:56:38.774Z,4.68
2022-08-17T08:59:57.923Z,5.10
2022-08-17T09:02:25.256Z,5.07
2022-08-17T09:05:15.659Z,5.00
2022-08-17T09:07:57.340Z,5.05
2022-08-17T09:10:30.658Z,5.00
2022-08-17T09:13:05.976Z,8.05
2022-08-17T09:15:50.040Z,6.60
2022-08-17T09:19:01.893Z,6.13
2022-08-17T09:21:19.249Z,5.55
2022-08-17T09:24:04.864Z,6.18
2022-08-17T09:26:48.543Z,4.80
2022-08-17T09:29:18.040Z,4.93
2022-08-17T09:31:57.932Z,4.43
2022-08-17T09:34:54.926Z,4.82
2022-08-17T09:38:03.884Z,4.32
2022-08-17T09:40:59.733Z,3.97
2022-08-17T09:43:26.509Z,3.58
2022-08-17T09:45:57.911Z,4.07
2022-08-17T09:48:42.022Z,3.33
2022-08-17T09:51:40.150Z,3.60
2022-08-17T09:54:37.995Z,2.90
2022-08-17T09:57:29.173Z,3.72
2022-08-17T10:00:27.734Z,3.75
2022-08-17T10:02:57.577Z,3.22
2022-08-17T10:05:57.247Z,3.25
2022-08-17T10:08:42.557Z,2.70
2022-08-17T10:12:05.756Z,2.90
2022-08-17T10:14:53.307Z,2.45
2022-08-17T10:17:41.565Z,2.40
2022-08-17T10:20:31.588Z,2.40
2022-08-17T10:23:24.052Z,2.05
2022-08-17T10:26:14.608Z,2.63
2022-08-17T10:29:12.435Z,2.38
2022-08-17T10:31:41.086Z,2.65
2022-08-17T10:34:41.142Z,2.33
2022-08-17T10:37:47.115Z,2.28
2022-08-17T10:40:24.583Z,1.95
2022-08-17T10:43:13.574Z,2.58
2022-08-17T10:46:09.521Z,2.10
2022-08-17T10:48:42.508Z,1.85
2022-08-17T10:51:37.826Z,1.98
2022-08-17T10:54:36.211Z,2.05
2022-08-17T10:57:22.913Z,2.40
2022-08-17T10:59:52.155Z,2.38
2022-08-17T11:02:31.638Z,2.10
2022-08-17T11:05:11.653Z,2.13
2022-08-17T11:08:06.950Z,2.33
2022-08-17T11:10:51.810Z,2.03
2022-08-17T11:13:24.424Z,1.90
2022-08-17T11:16:32.847Z,1.73
2022-08-17T11:19:50.997Z,1.92
2022-08-17T11:22:34.013Z,2.03
2022-08-17T11:25:17.523Z,2.15
2022-08-17T11:27:53.439Z,2.10
2022-08-17T11:30:46.821Z,1.60
2022-08-17T11:33:41.812Z,2.13
2022-08-17T11:36:29.425Z,1.73
2022-08-17T11:39:13.162Z,2.15
2022-08-17T11:41:53.305Z,1.95
2022-08-17T11:44:37.617Z,1.73
2022-08-17T11:47:33.455Z,1.70
2022-08-17T11:50:44.816Z,2.38
2022-08-17T11:53:37.283Z,1.67
2022-08-17T11:56:25.235Z,1.75
2022-08-17T11:58:52.098Z,1.73
2022-08-17T12:01:26.847Z,2.13
2022-08-17T12:04:03.734Z,1.95
2022-08-17T12:06:39.929Z,2.03
2022-08-17T12:09:21.104Z,2.08
2022-08-17T12:12:13.082Z,2.08
2022-08-17T12:17:40.118Z,1.88
2022-08-17T12:20:34.193Z,2.22
2022-08-17T12:23:09.939Z,2.28
2022-08-17T12:25:49.471Z,2.00
2022-08-17T12:28:29.361Z,3.58
2022-08-17T12:31:11.717Z,2.53
2022-08-17T12:33:44.151Z,2.42
2022-08-17T12:36:15.218Z,2.25
2022-08-17T12:38:57.232Z,2.15
2022-08-17T12:41:52.504Z,2.20
2022-08-17T12:44:25.516Z,2.38
2022-08-17T12:47:20.996Z,2.13
2022-08-17T12:49:54.823Z,2.00
2022-08-17T12:52:32.856Z,2.40
2022-08-17T12:55:21.370Z,2.30
2022-08-17T12:57:51.326Z,3.10
2022-08-17T13:00:22.002Z,2.67
2022-08-17T13:02:53.472Z,2.50
2022-08-17T13:05:25.050Z,2.50
2022-08-17T13:07:53.255Z,2.58
2022-08-17T13:10:31.670Z,2.60
2022-08-17T13:13:04.917Z,2.70
2022-08-17T13:15:44.766Z,3.15
2022-08-17T13:18:38.829Z,2.53
2022-08-17T13:21:11.295Z,2.60
2022-08-17T13:23:38.273Z,2.90
2022-08-17T13:26:15.923Z,2.80
2022-08-17T13:28:51.103Z,2.55
2022-08-17T13:31:52.328Z,2.90
2022-08-17T13:34:26.865Z,2.45
2022-08-17T13:37:34.747Z,2.42
2022-08-17T13:40:10.907Z,3.00
2022-08-17T13:42:53.004Z,2.83
2022-08-17T13:45:38.862Z,3.00
2022-08-17T13:48:14.227Z,2.65
2022-08-17T13:50:46.042Z,3.28
2022-08-17T13:53:25.193Z,2.97
2022-08-17T13:56:33.195Z,3.15
2022-08-17T13:58:56.028Z,3.00
2022-08-17T14:01:31.181Z,3.20
2022-08-17T14:03:59.674Z,2.88
2022-08-17T14:06:52.761Z,3.60
2022-08-17T14:09:22.779Z,3.22
2022-08-17T14:11:51.097Z,3.75
2022-08-17T14:14:18.071Z,3.33
2022-08-17T14:16:45.024Z,2.88
2022-08-17T14:19:14.184Z,3.03
2022-08-17T14:21:43.782Z,2.95
2022-08-17T14:24:21.142Z,3.17
2022-08-17T14:26:48.736Z,2.90
2022-08-17T14:29:15.778Z,3.42
2022-08-17T14:31:42.832Z,3.20
2022-08-17T14:34:20.444Z,2.95
2022-08-17T14:36:48.446Z,3.30
2022-08-17T14:39:17.055Z,3.10
2022-08-17T14:41:44.262Z,3.40
2022-08-17T14:44:12.521Z,3.45
2022-08-17T14:46:41.219Z,3.30
2022-08-17T14:49:10.785Z,3.55
2022-08-17T14:51:43.487Z,3.08
2022-08-17T14:54:11.835Z,3.17
2022-08-17T14:57:11.592Z,2.90
2022-08-17T14:59:45.967Z,3.00
2022-08-17T15:02:13.681Z,3.25
2022-08-17T15:04:45.343Z,3.00
2022-08-17T15:07:12.480Z,3.13
2022-08-17T15:09:39.378Z,3.55
2022-08-17T15:12:06.957Z,3.13
2022-08-17T15:14:35.538Z,3.42
2022-08-17T15:17:05.653Z,3.60
2022-08-17T15:19:32.409Z,3.20
2022-08-17T15:21:59.232Z,3.58
2022-08-17T15:24:26.071Z,3.05
2022-08-17T15:26:52.873Z,3.45
2022-08-17T15:29:19.624Z,3.20
2022-08-17T15:31:46.382Z,3.10
2022-08-17T15:34:13.650Z,3.47
2022-08-17T15:36:43.838Z,3.70
2022-08-17T15:39:19.636Z,3.60
2022-08-17T15:41:47.386Z,3.67
2022-08-17T15:44:32.434Z,3.22
2022-08-17T15:47:01.544Z,3.50
2022-08-17T15:49:28.365Z,3.60
2022-08-17T15:51:55.496Z,3.55
2022-08-17T15:54:23.416Z,3.30
2022-08-17T15:56:50.441Z,3.05
2022-08-17T15:59:17.268Z,3.72
2022-08-17T16:03:14.405Z,3.28
2022-08-17T16:04:31.941Z,3.42
2022-08-17T16:07:00.253Z,3.70
2022-08-17T16:09:27.676Z,3.15
2022-08-17T16:11:56.082Z,3.78
2022-08-17T16:14:24.501Z,3.85
2022-08-17T16:16:59.264Z,3.30
2022-08-17T16:19:26.022Z,3.58
2022-08-17T16:21:52.805Z,3.05
2022-08-17T16:24:19.569Z,3.72
2022-08-17T16:26:46.408Z,3.10
2022-08-17T16:29:13.397Z,3.58
2022-08-17T16:31:41.736Z,3.22
2022-08-17T16:34:17.069Z,4.28
2022-08-17T16:36:55.583Z,3.25
2022-08-17T16:39:28.859Z,3.72
2022-08-17T16:41:57.061Z,3.38
2022-08-17T16:44:25.669Z,2.88
2022-08-17T16:46:52.482Z,3.20
2022-08-17T16:49:35.297Z,3.30
2022-08-17T16:52:04.003Z,3.78
2022-08-17T16:54:30.939Z,3.85
2022-08-17T16:56:57.714Z,3.20
2022-08-17T16:59:31.704Z,3.20
2022-08-17T17:02:12.817Z,3.95
2022-08-17T17:04:48.068Z,3.75
2022-08-17T17:07:53.624Z,3.67
2022-08-17T17:10:26.076Z,3.22
2022-08-17T17:13:01.669Z,3.47
2022-08-17T17:15:45.279Z,4.65
2022-08-17T17:18:14.706Z,4.45
2022-08-17T17:20:58.416Z,3.40
2022-08-17T17:23:37.274Z,3.90
2022-08-17T17:26:04.129Z,3.47
2022-08-17T17:28:46.249Z,3.72
2022-08-17T17:31:19.801Z,3.42
2022-08-17T17:33:49.219Z,3.50
2022-08-17T17:36:28.268Z,3.50
2022-08-17T17:39:01.333Z,3.67
2022-08-17T17:41:37.150Z,4.00
2022-08-17T17:44:12.141Z,3.72
2022-08-17T17:46:43.490Z,3.78
2022-08-17T17:49:11.222Z,3.50
2022-08-17T17:52:09.642Z,4.82
2022-08-17T17:54:54.217Z,5.05
2022-08-17T17:57:49.926Z,4.30
2022-08-17T18:00:23.556Z,4.28
2022-08-17T18:03:11.273Z,4.28
2022-08-17T18:06:05.470Z,4.70
2022-08-17T18:08:44.568Z,4.35
2022-08-17T18:11:24.258Z,4.97
2022-08-17T18:14:14.834Z,4.57
2022-08-17T18:16:43.624Z,4.68
2022-08-17T18:19:19.811Z,4.47
2022-08-17T18:21:54.488Z,4.82
2022-08-17T18:24:39.969Z,4.80
2022-08-17T18:27:33.129Z,4.60
2022-08-17T18:30:07.153Z,3.28
2022-08-17T18:32:46.316Z,3.45
2022-08-17T18:35:15.740Z,3.55
2022-08-17T18:37:47.578Z,3.70
2022-08-17T18:40:17.577Z,3.83
2022-08-17T18:42:59.009Z,3.40
2022-08-17T18:45:48.564Z,3.58
2022-08-17T18:48:36.042Z,3.50
2022-08-17T18:51:42.383Z,3.70
2022-08-17T18:54:22.942Z,3.08
2022-08-17T18:56:58.750Z,3.17
2022-08-17T18:59:33.813Z,3.60
2022-08-17T19:02:24.855Z,3.15
2022-08-17T19:05:07.269Z,3.72
2022-08-17T19:07:46.890Z,3.00
2022-08-17T19:10:34.473Z,3.60
2022-08-17T19:13:28.276Z,3.33
2022-08-17T19:18:44.527Z,3.55
2022-08-17T19:21:26.871Z,3.90
2022-08-17T19:24:20.469Z,4.25
2022-08-17T19:27:02.784Z,3.90
2022-08-17T19:29:41.371Z,3.97
2022-08-17T19:32:09.850Z,4.00
2022-08-17T19:34:39.144Z,4.22
2022-08-17T19:37:15.065Z,4.22
2022-08-17T19:39:48.963Z,4.03
2022-08-17T19:42:33.946Z,4.18
2022-08-17T19:45:10.576Z,3.78
2022-08-17T19:47:57.186Z,3.55
2022-08-17T19:50:42.740Z,3.47
2022-08-17T19:53:54.207Z,4.43
2022-08-17T19:56:29.058Z,3.20
2022-08-17T19:59:21.039Z,3.90
2022-08-17T20:02:01.041Z,3.38
2022-08-17T20:04:39.323Z,4.15
2022-08-17T20:07:40.730Z,3.60
2022-08-17T20:10:19.301Z,3.78
2022-08-17T20:12:47.609Z,4.00
2022-08-17T20:15:30.682Z,3.80
2022-08-17T20:18:03.401Z,3.58
2022-08-17T20:21:05.060Z,3.97
2022-08-17T20:23:52.121Z,4.28
2022-08-17T20:26:26.439Z,4.05
2022-08-17T20:29:08.541Z,3.70
2022-08-17T20:31:45.324Z,4.00
2022-08-17T20:34:31.058Z,4.05
2022-08-17T20:37:07.798Z,3.92
2022-08-17T20:39:39.841Z,4.75
2022-08-17T20:42:21.808Z,4.15
2022-08-17T20:44:58.253Z,4.10
2022-08-17T20:47:35.232Z,4.38
2022-08-17T20:50:34.556Z,5.22
2022-08-17T20:53:04.230Z,5.05
2022-08-17T20:55:34.279Z,5.63
2022-08-17T20:58:16.422Z,4.57
2022-08-17T21:00:45.125Z,4.68
2022-08-17T21:03:22.697Z,5.40
2022-08-17T21:06:17.599Z,4.95
2022-08-17T21:08:54.583Z,5.00
2022-08-17T21:12:02.286Z,4.63
2022-08-17T21:30:10.097Z,4.25
2022-08-17T21:32:42.023Z,4.60
2022-08-17T21:35:24.660Z,4.55
2022-08-17T21:38:12.667Z,5.30
2022-08-17T21:40:45.080Z,4.95
2022-08-17T21:43:25.561Z,4.90
2022-08-17T21:46:10.079Z,4.63
2022-08-17T21:48:49.313Z,4.55
2022-08-17T21:51:26.170Z,4.22
2022-08-17T21:53:57.158Z,4.78
2022-08-17T21:56:31.437Z,5.10
2022-08-17T21:59:03.069Z,4.25
2022-08-17T22:01:39.496Z,5.22
2022-08-17T22:04:20.135Z,4.15
2022-08-17T22:06:52.258Z,4.43
2022-08-17T22:09:34.047Z,4.03
2022-08-17T22:12:03.784Z,4.15
2022-08-17T22:14:52.666Z,3.45
2022-08-17T22:17:20.800Z,4.47
2022-08-17T22:19:59.388Z,4.07
2022-08-17T22:22:35.132Z,4.00
2022-08-17T22:25:07.262Z,3.70
2022-08-17T22:27:57.889Z,4.30
2022-08-17T22:30:30.225Z,3.38
2022-08-17T22:32:58.025Z,4.13
2022-08-17T22:35:35.854Z,4.45
2022-08-17T22:38:20.904Z,3.28
2022-08-17T22:40:52.442Z,3.10
2022-08-17T22:45:58.998Z,3.10
2022-08-17T22:48:28.488Z,2.47
2022-08-17T22:51:14.247Z,2.55
2022-08-17T22:54:19.492Z,2.40
2022-08-17T22:57:18.713Z,2.25
2022-08-17T22:59:52.419Z,3.00
2022-08-17T23:02:23.716Z,2.40
2022-08-17T23:05:12.992Z,2.33
2022-08-17T23:07:42.517Z,1.70
2022-08-17T23:10:11.544Z,2.17
2022-08-17T23:12:39.691Z,2.40
2022-08-17T23:15:14.323Z,1.95
2022-08-17T23:17:42.047Z,1.90
2022-08-17T23:20:14.132Z,2.22
2022-08-17T23:22:51.110Z,2.45
2022-08-17T23:25:25.509Z,1.80
2022-08-17T23:27:52.529Z,1.98
2022-08-17T23:30:19.896Z,2.40
2022-08-17T23:32:53.700Z,1.98
2022-08-17T23:35:21.043Z,2.05
2022-08-17T23:38:10.800Z,1.50
2022-08-17T23:40:39.357Z,1.80
2022-08-17T23:43:17.451Z,1.73
2022-08-17T23:45:56.206Z,1.80
2022-08-17T23:48:35.325Z,1.83
2022-08-17T23:51:10.844Z,1.92
2022-08-17T23:53:41.924Z,1.40
2022-08-17T23:56:11.179Z,1.70
2022-08-17T23:58:40.386Z,1.60
